Time;durP1;ratioP1;P1;durP2;ratioP2;P2;SDS_P1;SDS_P2;PMS_P1;PMS_P2;Temp;Humidity;BMP_temperature;BMP_pressure;BME280_temperature;BME280_humidity;BME280_pressure;Samples;Min_cycle;Max_cycle;Signal;HPM_P1;HPM_P2
2023/07/17 00:02:07;;;;;;;;;;;17.40;99.90;;;;;;5067022;28;19925;-85
2023/07/17 00:04:32;;;;;;;;;;;17.40;99.90;;;;;;5036164;28;19928;-85
2023/07/17 00:06:58;;;;;;;;;;;17.40;99.90;;;;;;5056210;28;19933;-87
2023/07/17 00:09:23;;;;;;;;;;;17.50;99.90;;;;;;5050057;28;19929;-84
2023/07/17 00:11:49;;;;;;;;;;;17.40;99.90;;;;;;5058696;28;19925;-84
2023/07/17 00:14:14;;;;;;;;;;;17.30;99.90;;;;;;5040189;28;19932;-84
2023/07/17 00:16:40;;;;;;;;;;;17.40;99.90;;;;;;5037469;28;19924;-87
2023/07/17 00:19:05;;;;;;;;;;;17.30;99.90;;;;;;5040284;28;20533;-85
2023/07/17 00:21:31;;;;;;;;;;;17.40;99.90;;;;;;5056974;28;20342;-86
2023/07/17 00:23:57;;;;;;;;;;;17.40;99.90;;;;;;5052122;28;19932;-86
2023/07/17 00:26:23;;;;;;;;;;;17.30;99.90;;;;;;5050199;28;20030;-84
2023/07/17 00:28:48;;;;;;;;;;;17.30;99.90;;;;;;5054317;28;19929;-84
2023/07/17 00:31:14;;;;;;;;;;;17.30;99.90;;;;;;5024213;28;19936;-84
2023/07/17 00:33:39;;;;;;;;;;;17.30;99.90;;;;;;5026067;28;20046;-85
2023/07/17 00:36:05;;;;;;;;;;;17.30;99.90;;;;;;5037844;28;19932;-84
2023/07/17 00:38:31;;;;;;;;;;;17.30;99.90;;;;;;5029687;28;19936;-84
2023/07/17 00:40:56;;;;;;;;;;;17.30;99.90;;;;;;5036910;28;20387;-84
2023/07/17 00:43:22;;;;;;;;;;;17.30;99.90;;;;;;5049053;28;19956;-86
2023/07/17 00:45:48;;;;;;;;;;;17.20;99.90;;;;;;5036210;28;19925;-83
2023/07/17 00:48:14;;;;;;;;;;;17.20;99.90;;;;;;5035329;28;19929;-85
2023/07/17 00:50:39;;;;;;;;;;;17.10;99.90;;;;;;5035909;28;19925;-85
2023/07/17 00:53:06;;;;;;;;;;;17.00;99.90;;;;;;5053414;28;19931;-85
2023/07/17 00:55:32;;;;;;;;;;;17.00;99.90;;;;;;5036114;28;19940;-84
2023/07/17 00:57:59;;;;;;;;;;;16.90;99.90;;;;;;5027048;28;19928;-86
2023/07/17 01:00:24;;;;;;;;;;;16.90;99.90;;;;;;5053343;28;20312;-85
2023/07/17 01:02:53;;;;;;;;;;;16.90;99.90;;;;;;5053315;28;20332;-83
2023/07/17 01:05:19;;;;;;;;;;;16.80;99.90;;;;;;5057721;28;19924;-85
2023/07/17 01:07:45;;;;;;;;;;;16.80;99.90;;;;;;5043173;28;19932;-84
2023/07/17 01:10:10;;;;;;;;;;;16.70;99.90;;;;;;5018584;28;20278;-86
2023/07/17 01:12:36;;;;;;;;;;;16.70;99.90;;;;;;5035814;28;19968;-84
2023/07/17 01:15:06;;;;;;;;;;;16.70;99.90;;;;;;5051521;28;20054;-84
2023/07/17 01:17:32;;;;;;;;;;;16.60;99.90;;;;;;5036338;28;19954;-85
2023/07/17 01:19:57;;;;;;;;;;;16.60;99.90;;;;;;5038877;28;19925;-84
2023/07/17 01:22:27;;;;;;;;;;;16.60;99.90;;;;;;5035814;28;19988;-86
2023/07/17 01:24:52;;;;;;;;;;;16.50;99.90;;;;;;5053153;28;19924;-85
2023/07/17 01:27:18;;;;;;;;;;;16.50;99.90;;;;;;5052124;28;19931;-84
2023/07/17 01:29:44;;;;;;;;;;;16.50;99.90;;;;;;5050041;28;20327;-84
2023/07/17 01:32:10;;;;;;;;;;;16.50;99.90;;;;;;5049816;28;20059;-84
2023/07/17 01:34:35;;;;;;;;;;;16.40;99.90;;;;;;5061211;28;19932;-86
2023/07/17 01:37:01;;;;;;;;;;;16.40;99.90;;;;;;5051744;28;20641;-84
2023/07/17 01:39:27;;;;;;;;;;;16.40;99.90;;;;;;5054579;28;20376;-84
2023/07/17 01:41:52;;;;;;;;;;;16.30;99.90;;;;;;5055369;28;19929;-85
2023/07/17 01:44:18;;;;;;;;;;;16.30;99.90;;;;;;5051929;28;20347;-84
2023/07/17 01:46:43;;;;;;;;;;;16.30;99.90;;;;;;5051077;28;19928;-84
2023/07/17 01:49:09;;;;;;;;;;;16.20;99.90;;;;;;5031592;28;19932;-84
2023/07/17 01:51:35;;;;;;;;;;;16.20;99.90;;;;;;5056094;28;19924;-84
2023/07/17 01:54:00;;;;;;;;;;;16.20;99.90;;;;;;5032730;28;19929;-86
2023/07/17 01:56:26;;;;;;;;;;;16.20;99.90;;;;;;5034387;28;20008;-85
2023/07/17 01:58:51;;;;;;;;;;;16.10;99.90;;;;;;5033775;28;19936;-85
2023/07/17 02:01:17;;;;;;;;;;;16.10;99.90;;;;;;5034989;28;20386;-86
2023/07/17 02:03:45;;;;;;;;;;;16.10;99.90;;;;;;5013685;28;19948;-84
2023/07/17 02:06:11;;;;;;;;;;;16.10;99.90;;;;;;5040162;28;19966;-85
2023/07/17 02:08:36;;;;;;;;;;;16.10;99.90;;;;;;5054329;28;19929;-83
2023/07/17 02:11:02;;;;;;;;;;;16.10;99.90;;;;;;5052220;28;19936;-84
2023/07/17 02:13:27;;;;;;;;;;;16.10;99.90;;;;;;5032419;28;19925;-84
2023/07/17 02:15:53;;;;;;;;;;;16.10;99.90;;;;;;5058289;28;19947;-83
2023/07/17 02:18:18;;;;;;;;;;;16.10;99.90;;;;;;5034845;28;20015;-83
2023/07/17 02:20:44;;;;;;;;;;;16.10;99.90;;;;;;5037426;28;19932;-84
2023/07/17 02:23:10;;;;;;;;;;;16.10;99.90;;;;;;5033849;28;19935;-84
2023/07/17 02:25:35;;;;;;;;;;;16.00;99.90;;;;;;5052256;28;20016;-85
2023/07/17 02:28:01;;;;;;;;;;;16.00;99.90;;;;;;5051019;28;19925;-83
2023/07/17 02:30:26;;;;;;;;;;;15.90;99.90;;;;;;5041021;28;20015;-85
2023/07/17 02:32:52;;;;;;;;;;;15.80;99.90;;;;;;5038674;28;19974;-84
2023/07/17 02:35:18;;;;;;;;;;;15.80;99.90;;;;;;5031996;28;19936;-85
2023/07/17 02:37:43;;;;;;;;;;;15.70;99.90;;;;;;5048843;28;20011;-87
2023/07/17 02:40:10;;;;;;;;;;;15.70;99.90;;;;;;5035866;28;19928;-84
2023/07/17 02:42:36;;;;;;;;;;;15.60;99.90;;;;;;5054477;28;19931;-85
2023/07/17 02:45:03;;;;;;;;;;;15.60;99.90;;;;;;5051615;28;19972;-84
2023/07/17 02:47:29;;;;;;;;;;;15.60;99.90;;;;;;5051211;28;19947;-84
2023/07/17 02:49:54;;;;;;;;;;;15.50;99.90;;;;;;5052207;28;20395;-84
2023/07/17 02:52:20;;;;;;;;;;;15.60;99.90;;;;;;5034179;28;20337;-83
2023/07/17 02:54:46;;;;;;;;;;;15.50;99.90;;;;;;5047104;28;19932;-84
2023/07/17 02:57:11;;;;;;;;;;;15.50;99.90;;;;;;5044074;28;19929;-84
2023/07/17 02:59:37;;;;;;;;;;;15.50;99.90;;;;;;5039052;28;20004;-83
2023/07/17 03:02:04;;;;;;;;;;;15.50;99.90;;;;;;5034844;28;19933;-86
2023/07/17 03:04:29;;;;;;;;;;;15.40;99.90;;;;;;5047506;28;20003;-83
2023/07/17 03:06:55;;;;;;;;;;;15.40;99.90;;;;;;5037619;28;20011;-84
2023/07/17 03:09:20;;;;;;;;;;;15.40;99.90;;;;;;5052347;28;19964;-84
2023/07/17 03:11:46;;;;;;;;;;;15.40;99.90;;;;;;5037513;28;19931;-86
2023/07/17 03:14:12;;;;;;;;;;;15.30;99.90;;;;;;5053553;28;19943;-84
2023/07/17 03:16:37;;;;;;;;;;;15.30;99.90;;;;;;5051990;28;19964;-86
2023/07/17 03:19:03;;;;;;;;;;;15.30;99.90;;;;;;5053313;28;19925;-83
2023/07/17 03:21:28;;;;;;;;;;;15.30;99.90;;;;;;5056599;28;20085;-84
2023/07/17 03:23:54;;;;;;;;;;;15.30;99.90;;;;;;5060352;28;19993;-83
2023/07/17 03:26:20;;;;;;;;;;;15.20;99.90;;;;;;5058239;28;19940;-85
2023/07/17 03:28:46;;;;;;;;;;;15.30;99.90;;;;;;5052265;28;20504;-84
2023/07/17 03:31:11;;;;;;;;;;;15.20;99.90;;;;;;5054625;28;19979;-84
2023/07/17 03:33:37;;;;;;;;;;;15.20;99.90;;;;;;5036529;28;19925;-84
2023/07/17 03:36:02;;;;;;;;;;;15.20;99.90;;;;;;5059840;28;19937;-85
2023/07/17 03:38:28;;;;;;;;;;;15.20;99.90;;;;;;5039015;28;20424;-85
2023/07/17 03:40:53;;;;;;;;;;;15.20;99.90;;;;;;5041545;28;19933;-87
2023/07/17 03:43:19;;;;;;;;;;;15.10;99.90;;;;;;5041787;28;19924;-84
2023/07/17 03:45:45;;;;;;;;;;;15.10;99.90;;;;;;5039466;28;20429;-83
2023/07/17 03:48:10;;;;;;;;;;;15.10;99.90;;;;;;5058512;28;19924;-86
2023/07/17 03:50:36;;;;;;;;;;;15.10;99.90;;;;;;5028354;28;19925;-85
2023/07/17 03:53:02;;;;;;;;;;;15.00;99.90;;;;;;5035719;28;20379;-85
2023/07/17 03:55:27;;;;;;;;;;;15.10;99.90;;;;;;5043455;28;19979;-85
2023/07/17 03:57:53;;;;;;;;;;;15.00;99.90;;;;;;5042218;28;19960;-85
2023/07/17 04:00:19;;;;;;;;;;;15.00;99.90;;;;;;5037884;28;19932;-85
2023/07/17 04:02:44;;;;;;;;;;;15.10;99.90;;;;;;5037710;28;19936;-84
2023/07/17 04:05:10;;;;;;;;;;;15.00;99.90;;;;;;5039523;28;19929;-84
2023/07/17 04:07:36;;;;;;;;;;;15.10;99.90;;;;;;5043060;28;19932;-87
2023/07/17 04:10:02;;;;;;;;;;;15.10;99.90;;;;;;5034533;28;20321;-85
2023/07/17 04:12:27;;;;;;;;;;;15.10;99.90;;;;;;5050989;28;19924;-84
2023/07/17 04:14:53;;;;;;;;;;;15.10;99.90;;;;;;5035486;28;19929;-84
2023/07/17 04:17:18;;;;;;;;;;;15.10;99.90;;;;;;5055075;28;20360;-84
2023/07/17 04:19:44;;;;;;;;;;;15.20;99.90;;;;;;5058068;28;19932;-86
2023/07/17 04:22:10;;;;;;;;;;;15.20;99.90;;;;;;5039847;28;19958;-85
2023/07/17 04:24:35;;;;;;;;;;;15.30;99.90;;;;;;5049945;28;20007;-86
2023/07/17 04:27:01;;;;;;;;;;;15.30;99.90;;;;;;5038316;28;19932;-84
2023/07/17 04:29:26;;;;;;;;;;;15.30;99.90;;;;;;5041077;28;19931;-84
2023/07/17 04:31:52;;;;;;;;;;;15.30;99.90;;;;;;5041748;28;19932;-84
2023/07/17 04:34:18;;;;;;;;;;;15.40;99.90;;;;;;5045509;28;19929;-87
2023/07/17 04:36:43;;;;;;;;;;;15.40;99.90;;;;;;5037254;28;19929;-84
2023/07/17 04:39:09;;;;;;;;;;;15.40;99.90;;;;;;5065491;28;19979;-86
2023/07/17 04:41:35;;;;;;;;;;;15.40;99.90;;;;;;5051857;28;20395;-84
2023/07/17 04:44:00;;;;;;;;;;;15.50;99.90;;;;;;5046196;28;20539;-86
2023/07/17 04:46:26;;;;;;;;;;;15.50;99.90;;;;;;5053692;28;20402;-85
2023/07/17 04:48:51;;;;;;;;;;;15.60;99.90;;;;;;5041392;28;19939;-85
2023/07/17 04:51:17;;;;;;;;;;;15.60;99.90;;;;;;5058514;28;20019;-86
2023/07/17 04:53:42;;;;;;;;;;;15.60;99.90;;;;;;5053032;28;20315;-89
2023/07/17 04:56:08;;;;;;;;;;;15.60;99.90;;;;;;5030463;28;19932;-86
2023/07/17 04:58:33;;;;;;;;;;;15.70;99.90;;;;;;5034457;28;19924;-86
2023/07/17 05:01:00;;;;;;;;;;;15.70;99.90;;;;;;5052472;28;19936;-85
2023/07/17 05:03:25;;;;;;;;;;;15.80;99.90;;;;;;5034900;28;20282;-84
2023/07/17 05:05:51;;;;;;;;;;;15.90;99.90;;;;;;5056754;28;19929;-84
2023/07/17 05:08:19;;;;;;;;;;;16.00;99.90;;;;;;5054784;28;20009;-84
2023/07/17 05:10:58;;;;;;;;;;;16.10;99.90;;;;;;5053287;28;19986;-87
2023/07/17 05:13:23;;;;;;;;;;;16.40;99.90;;;;;;5052583;28;20464;-85
2023/07/17 05:15:49;;;;;;;;;;;16.90;99.90;;;;;;5040513;28;19933;-85
2023/07/17 05:18:15;;;;;;;;;;;17.30;99.90;;;;;;5038542;28;19928;-85
2023/07/17 05:20:48;;;;;;;;;;;17.70;99.90;;;;;;5032900;28;19932;-83
2023/07/17 05:23:13;;;;;;;;;;;18.10;99.90;;;;;;5054430;28;20047;-85
2023/07/17 05:25:39;;;;;;;;;;;18.40;99.90;;;;;;5052705;28;20008;-84
2023/07/17 05:28:05;;;;;;;;;;;18.70;99.90;;;;;;5052965;28;19929;-85
2023/07/17 05:30:34;;;;;;;;;;;18.90;99.90;;;;;;5056404;28;19928;-86
2023/07/17 05:33:00;;;;;;;;;;;19.10;99.90;;;;;;5056330;28;19925;-84
2023/07/17 05:35:26;;;;;;;;;;;19.40;99.90;;;;;;5056053;28;20083;-85
2023/07/17 05:37:53;;;;;;;;;;;19.60;99.90;;;;;;5053061;28;20015;-86
2023/07/17 05:40:18;;;;;;;;;;;19.90;99.90;;;;;;5049359;28;19924;-85
2023/07/17 05:42:44;;;;;;;;;;;20.10;99.90;;;;;;5032478;28;19935;-87
2023/07/17 05:45:10;;;;;;;;;;;20.30;99.90;;;;;;5030416;28;20076;-86
2023/07/17 05:47:38;;;;;;;;;;;20.40;99.90;;;;;;5034222;28;19940;-86
2023/07/17 05:50:04;;;;;;;;;;;20.60;99.90;;;;;;5056959;28;20371;-84
2023/07/17 05:52:30;;;;;;;;;;;20.70;99.90;;;;;;5060257;28;20004;-84
2023/07/17 05:54:56;;;;;;;;;;;20.90;99.90;;;;;;5033174;28;20072;-87
2023/07/17 05:57:21;;;;;;;;;;;21.00;99.90;;;;;;5048514;28;19931;-83
2023/07/17 05:59:47;;;;;;;;;;;21.20;99.90;;;;;;5052027;28;20035;-83
2023/07/17 06:02:13;;;;;;;;;;;21.40;99.90;;;;;;5051955;28;19974;-84
2023/07/17 06:04:38;;;;;;;;;;;21.50;99.90;;;;;;5053322;28;19929;-83
2023/07/17 06:07:04;;;;;;;;;;;21.60;99.90;;;;;;5046698;28;19990;-83
2023/07/17 06:09:30;;;;;;;;;;;21.80;99.90;;;;;;5045877;28;19931;-83
2023/07/17 06:11:55;;;;;;;;;;;21.90;99.90;;;;;;5032333;28;20469;-85
2023/07/17 06:14:21;;;;;;;;;;;22.10;99.90;;;;;;5042908;28;19950;-88
2023/07/17 06:16:47;;;;;;;;;;;22.10;99.90;;;;;;5031380;28;20012;-82
2023/07/17 06:19:12;;;;;;;;;;;22.20;99.90;;;;;;5049538;28;19964;-85
2023/07/17 06:21:38;;;;;;;;;;;22.20;99.90;;;;;;5056036;28;19928;-84
2023/07/17 06:24:06;;;;;;;;;;;22.30;99.90;;;;;;5037639;28;20031;-84
2023/07/17 06:26:32;;;;;;;;;;;22.30;99.90;;;;;;5032465;28;20113;-85
2023/07/17 06:28:57;;;;;;;;;;;22.10;99.90;;;;;;5050466;28;20795;-84
2023/07/17 06:31:23;;;;;;;;;;;21.60;99.90;;;;;;5046499;28;19939;-85
2023/07/17 06:33:48;;;;;;;;;;;21.20;99.90;;;;;;5037765;28;19972;-84
2023/07/17 06:36:14;;;;;;;;;;;20.60;99.90;;;;;;5033916;28;19936;-84
2023/07/17 06:38:39;;;;;;;;;;;20.70;99.90;;;;;;5047798;28;19995;-85
2023/07/17 06:41:05;;;;;;;;;;;20.70;99.90;;;;;;5058413;28;19928;-86
2023/07/17 06:43:31;;;;;;;;;;;20.60;99.90;;;;;;5050548;28;20001;-84
2023/07/17 06:45:56;;;;;;;;;;;20.60;99.90;;;;;;5034089;28;20393;-82
2023/07/17 06:48:22;;;;;;;;;;;20.70;99.90;;;;;;5033636;28;19935;-85
2023/07/17 06:50:48;;;;;;;;;;;20.80;99.90;;;;;;5035340;28;19924;-83
2023/07/17 06:53:13;;;;;;;;;;;21.10;99.90;;;;;;5048737;28;19928;-84
2023/07/17 06:55:39;;;;;;;;;;;21.60;99.90;;;;;;5050330;28;20339;-84
2023/07/17 06:58:05;;;;;;;;;;;21.80;99.90;;;;;;5052847;28;19928;-84
2023/07/17 07:00:30;;;;;;;;;;;21.50;99.90;;;;;;5025711;28;19979;-84
2023/07/17 07:02:56;;;;;;;;;;;21.10;99.90;;;;;;5058454;28;19936;-87
2023/07/17 07:05:21;;;;;;;;;;;21.10;99.90;;;;;;5032700;28;19929;-84
2023/07/17 07:07:47;;;;;;;;;;;21.20;99.90;;;;;;5049606;28;19932;-85
2023/07/17 07:10:13;;;;;;;;;;;21.40;99.90;;;;;;5061881;28;20408;-83
2023/07/17 07:12:38;;;;;;;;;;;21.50;99.90;;;;;;5050320;28;19968;-85
2023/07/17 07:15:06;;;;;;;;;;;21.50;99.90;;;;;;5051221;28;19929;-82
2023/07/17 07:17:32;;;;;;;;;;;21.50;99.90;;;;;;5051488;28;20012;-84
2023/07/17 07:19:57;;;;;;;;;;;21.60;99.90;;;;;;5033038;28;19959;-85
2023/07/17 07:22:23;;;;;;;;;;;21.80;99.90;;;;;;5050160;28;19950;-84
2023/07/17 07:24:49;;;;;;;;;;;22.20;99.90;;;;;;5041515;28;19931;-85
2023/07/17 07:27:15;;;;;;;;;;;22.60;99.90;;;;;;5056774;28;19925;-86
2023/07/17 07:29:40;;;;;;;;;;;22.70;99.90;;;;;;5033073;28;19982;-87
2023/07/17 07:32:06;;;;;;;;;;;23.00;99.90;;;;;;5047903;28;20326;-86
2023/07/17 07:34:32;;;;;;;;;;;23.40;99.90;;;;;;5033233;28;19931;-90
2023/07/17 07:36:57;;;;;;;;;;;23.50;99.90;;;;;;5064679;28;20391;-87
2023/07/17 07:39:23;;;;;;;;;;;23.50;99.90;;;;;;5036280;28;19933;-86
2023/07/17 07:41:48;;;;;;;;;;;23.60;99.90;;;;;;5051181;28;20322;-86
2023/07/17 07:44:14;;;;;;;;;;;23.80;99.90;;;;;;5055876;28;19925;-86
2023/07/17 07:46:39;;;;;;;;;;;24.00;99.90;;;;;;5043399;28;19994;-86
2023/07/17 07:49:05;;;;;;;;;;;24.10;99.90;;;;;;5054784;28;19968;-87
2023/07/17 07:51:30;;;;;;;;;;;24.20;99.90;;;;;;5048662;28;19992;-85
2023/07/17 07:53:56;;;;;;;;;;;24.20;99.90;;;;;;5054637;28;19935;-86
2023/07/17 07:56:22;;;;;;;;;;;24.20;99.90;;;;;;5054436;28;20394;-86
2023/07/17 07:58:48;;;;;;;;;;;24.40;99.90;;;;;;5052537;28;19925;-87
2023/07/17 08:01:13;;;;;;;;;;;24.20;99.90;;;;;;5054568;28;19970;-85
2023/07/17 08:03:40;;;;;;;;;;;23.90;99.90;;;;;;5054552;28;20047;-88
2023/07/17 08:06:06;;;;;;;;;;;23.70;99.90;;;;;;5053927;28;20367;-84
2023/07/17 08:08:33;;;;;;;;;;;23.80;99.90;;;;;;5056437;28;21318;-86
2023/07/17 08:10:59;;;;;;;;;;;24.00;99.90;;;;;;5057454;28;19933;-87
2023/07/17 08:13:24;;;;;;;;;;;24.10;99.90;;;;;;5038782;28;19984;-88
2023/07/17 08:15:50;;;;;;;;;;;23.90;99.90;;;;;;5038981;28;19974;-86
2023/07/17 08:18:16;;;;;;;;;;;23.60;99.90;;;;;;5034425;28;19928;-86
2023/07/17 08:20:42;;;;;;;;;;;23.20;99.90;;;;;;5040324;28;19931;-87
2023/07/17 08:23:07;;;;;;;;;;;22.90;99.90;;;;;;5053605;28;19987;-87
2023/07/17 08:25:33;;;;;;;;;;;22.70;99.90;;;;;;5050703;28;20061;-86
2023/07/17 08:27:59;;;;;;;;;;;22.40;99.90;;;;;;5046044;28;19932;-88
2023/07/17 08:30:24;;;;;;;;;;;22.20;99.90;;;;;;5040540;28;20278;-85
2023/07/17 08:32:50;;;;;;;;;;;22.00;99.90;;;;;;5054709;28;19932;-85
2023/07/17 08:35:15;;;;;;;;;;;21.70;99.90;;;;;;5063735;28;19933;-86
2023/07/17 08:37:41;;;;;;;;;;;21.80;99.90;;;;;;5061343;28;19954;-87
2023/07/17 08:40:07;;;;;;;;;;;22.10;99.90;;;;;;5035794;28;20407;-86
2023/07/17 08:42:33;;;;;;;;;;;22.30;99.90;;;;;;5062949;28;19936;-86
2023/07/17 08:44:58;;;;;;;;;;;22.40;99.90;;;;;;5054487;28;19925;-85
2023/07/17 08:47:25;;;;;;;;;;;22.40;99.90;;;;;;5060079;28;20382;-85
2023/07/17 08:49:51;;;;;;;;;;;22.40;99.90;;;;;;5067529;28;20061;-87
2023/07/17 08:52:17;;;;;;;;;;;22.50;99.90;;;;;;5052810;28;20016;-88
2023/07/17 08:54:42;;;;;;;;;;;22.30;99.90;;;;;;5060642;28;19933;-85
2023/07/17 08:57:09;;;;;;;;;;;22.60;99.90;;;;;;5063042;28;20425;-87
2023/07/17 08:59:35;;;;;;;;;;;22.90;99.90;;;;;;5059732;28;19932;-87
2023/07/17 09:02:02;;;;;;;;;;;22.90;99.90;;;;;;5053104;28;19942;-85
2023/07/17 09:04:29;;;;;;;;;;;22.70;99.90;;;;;;5065072;28;19932;-85
2023/07/17 09:06:55;;;;;;;;;;;22.40;99.90;;;;;;5066293;28;19925;-85
2023/07/17 09:09:21;;;;;;;;;;;22.10;99.90;;;;;;5052569;28;19931;-84
2023/07/17 09:11:47;;;;;;;;;;;21.70;99.90;;;;;;5057605;28;20008;-85
2023/07/17 09:14:12;;;;;;;;;;;21.20;99.90;;;;;;5057662;28;19928;-86
2023/07/17 09:16:38;;;;;;;;;;;20.80;99.90;;;;;;5037953;28;19928;-86
2023/07/17 09:19:04;;;;;;;;;;;20.50;99.90;;;;;;5051311;28;20372;-87
2023/07/17 09:21:29;;;;;;;;;;;20.50;99.90;;;;;;5052410;28;20019;-85
2023/07/17 09:23:56;;;;;;;;;;;20.80;99.90;;;;;;5056611;28;19940;-85
2023/07/17 09:26:22;;;;;;;;;;;21.20;99.90;;;;;;5050461;28;20015;-86
2023/07/17 09:28:52;;;;;;;;;;;21.70;99.90;;;;;;5052204;28;19925;-86
2023/07/17 09:31:27;;;;;;;;;;;22.10;99.90;;;;;;5052699;28;19929;-85
2023/07/17 09:33:53;;;;;;;;;;;22.30;99.90;;;;;;5051580;28;19932;-86
2023/07/17 09:36:19;;;;;;;;;;;22.50;99.90;;;;;;5053193;28;19929;-87
2023/07/17 09:38:49;;;;;;;;;;;22.60;99.90;;;;;;5065040;28;20054;-85
2023/07/17 09:41:24;;;;;;;;;;;22.70;99.90;;;;;;5052800;28;19936;-83
2023/07/17 09:44:08;;;;;;;;;;;22.90;99.90;;;;;;5051798;28;19925;-87
2023/07/17 09:46:38;;;;;;;;;;;23.10;99.90;;;;;;5051270;28;20433;-86
2023/07/17 09:49:04;;;;;;;;;;;23.40;99.90;;;;;;5050471;28;20019;-86
2023/07/17 09:51:30;;;;;;;;;;;23.20;99.90;;;;;;5051220;28;19925;-87
2023/07/17 09:53:59;;;;;;;;;;;23.00;99.90;;;;;;5051227;28;19936;-87
2023/07/17 09:56:28;;;;;;;;;;;22.70;99.90;;;;;;5032339;28;19925;-83
2023/07/17 09:58:55;;;;;;;;;;;22.30;99.90;;;;;;5045845;28;20405;-85
2023/07/17 10:01:22;;;;;;;;;;;22.00;99.90;;;;;;5045323;28;19968;-83
2023/07/17 10:03:49;;;;;;;;;;;21.80;99.90;;;;;;5050111;28;19936;-86
2023/07/17 10:06:19;;;;;;;;;;;21.50;99.90;;;;;;5050390;28;19951;-83
2023/07/17 10:08:50;;;;;;;;;;;21.30;99.90;;;;;;5057238;28;19932;-84
2023/07/17 10:11:16;;;;;;;;;;;21.10;99.90;;;;;;5038401;28;20345;-85
2023/07/17 10:13:46;;;;;;;;;;;21.10;99.90;;;;;;5050966;28;19929;-83
2023/07/17 10:16:13;;;;;;;;;;;21.30;99.90;;;;;;5049867;28;19929;-83
2023/07/17 10:18:45;;;;;;;;;;;21.50;99.90;;;;;;5054672;28;19978;-88
2023/07/17 10:21:13;;;;;;;;;;;21.70;99.90;;;;;;5061007;28;19943;-86
2023/07/17 10:23:41;;;;;;;;;;;22.00;99.90;;;;;;5056780;28;20254;-87
2023/07/17 10:26:10;;;;;;;;;;;22.30;99.90;;;;;;5047315;28;19931;-86
2023/07/17 10:28:37;;;;;;;;;;;22.70;99.90;;;;;;5032031;28;19924;-86
2023/07/17 10:31:17;;;;;;;;;;;23.00;99.90;;;;;;5051415;28;19929;-87
2023/07/17 10:33:45;;;;;;;;;;;23.40;99.90;;;;;;5039725;28;19929;-88
2023/07/17 10:36:12;;;;;;;;;;;23.70;99.90;;;;;;5046076;28;20414;-88
2023/07/17 10:38:38;;;;;;;;;;;23.80;99.90;;;;;;5028664;28;19925;-86
2023/07/17 10:41:06;;;;;;;;;;;23.90;99.80;;;;;;5057397;28;19990;-87
2023/07/17 10:43:33;;;;;;;;;;;24.00;99.40;;;;;;5034816;28;19980;-87
2023/07/17 10:45:59;;;;;;;;;;;24.00;98.30;;;;;;5011055;28;19925;-86
2023/07/17 10:48:25;;;;;;;;;;;24.10;99.00;;;;;;5049981;28;20035;-86
2023/07/17 10:50:52;;;;;;;;;;;24.20;99.20;;;;;;5031864;28;19925;-87
2023/07/17 10:53:18;;;;;;;;;;;24.40;98.60;;;;;;5050001;28;19937;-87
2023/07/17 10:55:46;;;;;;;;;;;24.50;97.70;;;;;;5055652;28;19925;-86
2023/07/17 10:58:12;;;;;;;;;;;24.50;97.90;;;;;;5040858;28;20272;-86
2023/07/17 11:00:43;;;;;;;;;;;24.50;95.50;;;;;;5036891;28;19925;-85
2023/07/17 11:03:10;;;;;;;;;;;24.50;97.00;;;;;;5034874;28;19932;-87
2023/07/17 11:05:36;;;;;;;;;;;24.60;94.60;;;;;;5049067;28;20023;-86
2023/07/17 11:08:01;;;;;;;;;;;24.50;95.70;;;;;;5034456;28;20252;-86
2023/07/17 11:10:27;;;;;;;;;;;24.40;95.30;;;;;;5058156;28;19978;-84
2023/07/17 11:12:53;;;;;;;;;;;24.10;95.30;;;;;;5049487;28;19942;-85
2023/07/17 11:15:19;;;;;;;;;;;23.90;95.50;;;;;;5051128;28;19970;-85
2023/07/17 11:17:45;;;;;;;;;;;23.60;94.00;;;;;;5052237;28;19935;-85
2023/07/17 11:20:11;;;;;;;;;;;23.60;95.70;;;;;;5055714;28;19924;-86
2023/07/17 11:22:38;;;;;;;;;;;23.40;96.40;;;;;;5069743;28;20298;-84
2023/07/17 11:25:05;;;;;;;;;;;23.60;97.00;;;;;;5055243;28;19935;-85
2023/07/17 11:27:30;;;;;;;;;;;23.60;96.10;;;;;;5054796;28;20063;-86
2023/07/17 11:29:56;;;;;;;;;;;23.90;97.10;;;;;;5036665;28;20004;-86
2023/07/17 11:32:22;;;;;;;;;;;24.20;97.30;;;;;;5037234;28;19928;-86
2023/07/17 11:34:54;;;;;;;;;;;24.20;95.30;;;;;;5055093;28;20026;-86
2023/07/17 11:37:30;;;;;;;;;;;24.40;95.10;;;;;;5037103;28;19931;-84
2023/07/17 11:39:55;;;;;;;;;;;24.70;94.50;;;;;;5054565;28;19937;-85
2023/07/17 11:42:21;;;;;;;;;;;25.00;95.00;;;;;;5054927;28;19929;-88
2023/07/17 11:44:56;;;;;;;;;;;25.30;93.50;;;;;;5037075;28;20043;-86
2023/07/17 11:47:22;;;;;;;;;;;25.40;92.60;;;;;;5055026;28;19928;-83
2023/07/17 11:49:51;;;;;;;;;;;25.40;91.60;;;;;;5036802;28;19925;-85
2023/07/17 11:52:18;;;;;;;;;;;25.50;90.30;;;;;;5054890;28;19982;-87
2023/07/17 11:54:46;;;;;;;;;;;25.20;89.50;;;;;;5053954;28;19936;-84
2023/07/17 11:57:12;;;;;;;;;;;24.70;90.60;;;;;;5055301;28;19982;-83
2023/07/17 11:59:37;;;;;;;;;;;24.30;91.30;;;;;;5020301;28;19928;-83
2023/07/17 12:02:03;;;;;;;;;;;23.90;91.10;;;;;;5036269;28;19931;-83
2023/07/17 12:04:32;;;;;;;;;;;23.40;91.40;;;;;;5036470;28;19931;-84
2023/07/17 12:07:00;;;;;;;;;;;23.10;92.90;;;;;;5036014;28;19932;-83
2023/07/17 12:09:26;;;;;;;;;;;22.90;91.90;;;;;;5058561;28;19990;-86
2023/07/17 12:11:52;;;;;;;;;;;22.60;93.00;;;;;;5046848;28;19925;-84
2023/07/17 12:14:18;;;;;;;;;;;22.30;93.20;;;;;;5054179;28;19929;-83
2023/07/17 12:16:44;;;;;;;;;;;22.10;94.50;;;;;;5037026;28;20445;-87
2023/07/17 12:19:10;;;;;;;;;;;21.80;97.50;;;;;;5042059;28;19924;-87
2023/07/17 12:21:35;;;;;;;;;;;21.40;98.10;;;;;;5053322;28;20282;-85
2023/07/17 12:24:01;;;;;;;;;;;20.90;99.60;;;;;;5054155;28;19931;-85
2023/07/17 12:26:26;;;;;;;;;;;20.40;99.90;;;;;;5050831;28;19947;-87
2023/07/17 12:28:52;;;;;;;;;;;20.00;99.90;;;;;;5059143;28;19929;-86
2023/07/17 12:31:17;;;;;;;;;;;19.80;99.90;;;;;;5053452;28;19929;-86
2023/07/17 12:33:43;;;;;;;;;;;19.60;99.90;;;;;;5054944;28;19968;-86
2023/07/17 12:36:09;;;;;;;;;;;19.60;99.90;;;;;;5036708;28;19925;-85
2023/07/17 12:38:34;;;;;;;;;;;19.60;99.90;;;;;;5049679;28;19929;-87
2023/07/17 12:41:00;;;;;;;;;;;19.50;99.90;;;;;;5050544;28;19932;-86
2023/07/17 12:43:25;;;;;;;;;;;19.50;99.90;;;;;;5046044;28;20194;-88
2023/07/17 12:45:51;;;;;;;;;;;19.60;99.90;;;;;;5061763;28;19987;-87
2023/07/17 12:48:17;;;;;;;;;;;19.70;99.90;;;;;;5048480;28;20363;-87
2023/07/17 12:50:42;;;;;;;;;;;19.80;99.90;;;;;;5056151;28;19928;-89
2023/07/17 12:53:08;;;;;;;;;;;19.90;99.90;;;;;;5036306;28;19929;-86
2023/07/17 12:55:33;;;;;;;;;;;19.90;99.90;;;;;;5047775;28;21325;-85
2023/07/17 12:57:59;;;;;;;;;;;19.80;99.90;;;;;;5040973;28;19932;-86
2023/07/17 13:00:24;;;;;;;;;;;19.70;99.90;;;;;;5052077;28;19960;-86
2023/07/17 13:02:50;;;;;;;;;;;19.50;99.90;;;;;;5037081;28;19925;-86
2023/07/17 13:05:16;;;;;;;;;;;19.20;99.90;;;;;;5037422;28;20039;-85
2023/07/17 13:07:41;;;;;;;;;;;18.90;99.90;;;;;;5033988;28;19932;-86
2023/07/17 13:10:07;;;;;;;;;;;18.60;99.90;;;;;;5058910;28;19978;-86
2023/07/17 13:12:33;;;;;;;;;;;18.50;99.90;;;;;;5034506;28;20429;-84
2023/07/17 13:14:59;;;;;;;;;;;18.30;99.90;;;;;;5066520;28;19929;-86
2023/07/17 13:17:24;;;;;;;;;;;18.20;99.90;;;;;;5049607;28;19929;-85
2023/07/17 13:19:50;;;;;;;;;;;18.20;99.90;;;;;;5058730;28;19932;-87
2023/07/17 13:22:16;;;;;;;;;;;18.10;99.90;;;;;;5057256;28;19925;-86
2023/07/17 13:24:41;;;;;;;;;;;18.10;99.90;;;;;;5017814;28;19951;-85
2023/07/17 13:27:07;;;;;;;;;;;18.10;99.90;;;;;;5050088;28;19935;-86
2023/07/17 13:29:33;;;;;;;;;;;18.10;99.90;;;;;;5049203;28;19929;-85
2023/07/17 13:31:59;;;;;;;;;;;18.10;99.90;;;;;;5052224;28;19940;-85
2023/07/17 13:34:26;;;;;;;;;;;18.30;99.90;;;;;;5053347;28;20372;-85
2023/07/17 13:36:52;;;;;;;;;;;18.40;99.90;;;;;;5033852;28;20364;-85
2023/07/17 13:39:18;;;;;;;;;;;18.60;99.90;;;;;;5043845;28;19925;-84
2023/07/17 13:41:44;;;;;;;;;;;18.80;99.90;;;;;;5048770;28;19944;-84
2023/07/17 13:44:11;;;;;;;;;;;19.10;99.90;;;;;;5025245;28;19983;-84
2023/07/17 13:46:37;;;;;;;;;;;19.30;99.90;;;;;;5048552;28;19929;-84
2023/07/17 13:49:04;;;;;;;;;;;19.60;99.90;;;;;;5052321;28;19929;-85
2023/07/17 13:51:30;;;;;;;;;;;19.90;99.90;;;;;;5034719;28;19925;-85
2023/07/17 13:53:55;;;;;;;;;;;20.10;99.90;;;;;;5065477;28;19931;-84
2023/07/17 13:56:21;;;;;;;;;;;20.40;99.90;;;;;;5050405;28;19970;-86
2023/07/17 13:58:46;;;;;;;;;;;20.70;99.90;;;;;;5050744;28;19954;-86
2023/07/17 14:01:12;;;;;;;;;;;21.00;99.90;;;;;;5050961;28;20280;-87
2023/07/17 14:03:38;;;;;;;;;;;21.10;99.90;;;;;;5052086;28;19960;-86
2023/07/17 14:06:03;;;;;;;;;;;21.10;99.90;;;;;;5045855;28;19929;-86
2023/07/17 14:08:29;;;;;;;;;;;21.10;99.90;;;;;;5057997;28;19951;-87
2023/07/17 14:10:54;;;;;;;;;;;21.20;99.90;;;;;;5052167;28;19924;-87